Time;durP1;ratioP1;P1;durP2;ratioP2;P2;SDS_P1;SDS_P2;PMS_P1;PMS_P2;Temp;Humidity;BMP_temperature;BMP_pressure;BME280_temperature;BME280_humidity;BME280_pressure;Samples;Min_cycle;Max_cycle;Signal;HPM_P1;HPM_P2
2023/08/30 00:00:47;;;;;;;0.00;0.00;;;14.70;99.90;;;;;;4998866;28;20571;-75
2023/08/30 00:03:13;;;;;;;0.63;0.30;;;14.60;99.90;;;;;;4994747;28;20026;-76
2023/08/30 00:05:40;;;;;;;2.00;0.80;;;14.50;99.90;;;;;;4994870;28;20023;-75
2023/08/30 00:08:06;;;;;;;0.55;0.52;;;14.50;99.90;;;;;;5010617;28;20030;-75
2023/08/30 00:10:32;;;;;;;0.43;0.43;;;14.50;99.90;;;;;;5008439;28;20041;-75
2023/08/30 00:12:58;;;;;;;0.38;0.38;;;14.50;99.90;;;;;;5000842;28;20025;-75
2023/08/30 00:15:24;;;;;;;0.15;0.15;;;14.40;99.90;;;;;;5010126;28;20110;-75
2023/08/30 00:17:51;;;;;;;0.10;0.10;;;14.30;99.90;;;;;;5011406;28;20464;-75
2023/08/30 00:20:18;;;;;;;2.70;0.77;;;14.40;99.90;;;;;;5011393;28;20053;-75
2023/08/30 00:22:44;;;;;;;0.00;0.00;;;14.50;99.90;;;;;;5011305;28;20129;-75
2023/08/30 00:25:10;;;;;;;0.10;0.10;;;14.60;99.90;;;;;;5011197;28;20105;-75
2023/08/30 00:27:36;;;;;;;0.20;0.20;;;14.50;99.90;;;;;;5011108;28;20033;-75
2023/08/30 00:30:02;;;;;;;0.10;0.10;;;14.60;99.90;;;;;;5009917;28;20428;-75
2023/08/30 00:32:27;;;;;;;0.75;0.75;;;14.60;99.90;;;;;;5010922;28;20397;-75
2023/08/30 00:34:53;;;;;;;0.35;0.30;;;14.70;99.90;;;;;;5005578;28;20022;-75
2023/08/30 00:37:19;;;;;;;0.20;0.20;;;14.80;99.90;;;;;;5009580;28;20022;-75
2023/08/30 00:39:45;;;;;;;0.13;0.13;;;14.50;99.90;;;;;;5011066;28;20053;-75
2023/08/30 00:42:11;;;;;;;0.05;0.05;;;14.50;99.90;;;;;;5009841;28;20109;-75
2023/08/30 00:44:37;;;;;;;0.00;0.00;;;14.50;99.90;;;;;;5009567;28;20022;-75
2023/08/30 00:47:03;;;;;;;0.10;0.10;;;14.60;99.90;;;;;;5010977;28;20026;-75
2023/08/30 00:49:30;;;;;;;0.00;0.00;;;14.60;99.90;;;;;;5004774;28;20041;-75
2023/08/30 00:52:01;;;;;;;0.00;0.00;;;14.60;99.90;;;;;;5005441;28;20125;-75
2023/08/30 00:54:27;;;;;;;0.08;0.08;;;14.70;99.90;;;;;;5009160;28;20018;-75
2023/08/30 00:56:54;;;;;;;0.08;0.08;;;14.80;99.90;;;;;;5009619;28;20023;-75
2023/08/30 00:59:21;;;;;;;0.75;0.57;;;14.80;99.90;;;;;;5009146;28;20382;-75
2023/08/30 01:01:48;;;;;;;0.00;0.00;;;14.80;99.90;;;;;;5001063;28;20482;-75
2023/08/30 01:04:14;;;;;;;0.20;0.20;;;14.80;99.90;;;;;;5008691;28;20029;-75
2023/08/30 01:06:40;;;;;;;3.72;2.05;;;14.60;99.90;;;;;;5010508;28;20038;-75
2023/08/30 01:09:06;;;;;;;0.00;0.00;;;14.60;99.90;;;;;;5009392;28;20022;-75
2023/08/30 01:11:49;;;;;;;0.00;0.00;;;14.60;99.90;;;;;;5009197;28;20025;-77
2023/08/30 01:14:20;;;;;;;0.03;0.03;;;14.40;99.90;;;;;;5009543;28;20061;-77
2023/08/30 01:16:46;;;;;;;0.07;0.07;;;14.50;99.90;;;;;;5009323;28;20048;-77
2023/08/30 01:19:21;;;;;;;0.00;0.00;;;14.70;99.90;;;;;;5009116;28;20018;-77
2023/08/30 01:21:56;;;;;;;0.10;0.08;;;14.80;99.90;;;;;;5008766;28;20033;-75
2023/08/30 01:25:09;;;;;;;0.10;0.10;;;14.70;99.90;;;;;;5009385;28;20029;-74
2023/08/30 01:27:37;;;;;;;0.22;0.22;;;14.80;99.90;;;;;;4978900;28;20045;-74
2023/08/30 01:30:06;;;;;;;0.00;0.00;;;15.00;99.90;;;;;;5010319;28;20385;-75
2023/08/30 01:32:34;;;;;;;0.00;0.00;;;15.00;99.90;;;;;;5009982;28;20053;-75
2023/08/30 01:35:01;;;;;;;0.45;0.45;;;15.20;99.90;;;;;;5009306;28;20501;-77
2023/08/30 01:37:28;;;;;;;0.08;0.08;;;14.90;99.90;;;;;;4994965;28;20482;-76
2023/08/30 01:39:56;;;;;;;0.00;0.00;;;14.80;99.90;;;;;;5010575;28;20050;-76
2023/08/30 01:42:26;;;;;;;0.20;0.20;;;14.90;99.90;;;;;;5010023;28;20049;-77
2023/08/30 01:44:58;;;;;;;0.00;0.00;;;15.00;99.90;;;;;;5008990;28;20037;-76
2023/08/30 01:47:25;;;;;;;;;;;15.10;99.90;;;;;;5008798;28;20030;-76
2023/08/30 01:49:53;;;;;;;0.20;0.20;;;14.90;99.90;;;;;;5008998;28;19912;-76
2023/08/30 01:52:20;;;;;;;0.45;0.45;;;14.70;99.90;;;;;;5008738;28;20038;-76
2023/08/30 01:54:47;;;;;;;1.35;0.28;;;14.70;99.90;;;;;;5008840;28;20029;-76
2023/08/30 01:57:13;;;;;;;0.30;0.30;;;14.60;99.90;;;;;;5009885;28;20022;-76
2023/08/30 01:59:39;;;;;;;0.00;0.00;;;14.60;99.90;;;;;;5009735;28;20043;-76
2023/08/30 02:02:05;;;;;;;0.00;0.00;;;14.60;99.90;;;;;;5008602;28;20030;-76
2023/08/30 02:04:34;;;;;;;0.00;0.00;;;14.80;99.90;;;;;;5008600;28;20485;-76
2023/08/30 02:07:04;;;;;;;3.13;2.85;;;14.80;99.90;;;;;;5009946;28;20038;-76
2023/08/30 02:09:41;;;;;;;0.03;0.03;;;14.90;99.90;;;;;;5014617;28;20282;-76
2023/08/30 02:12:15;;;;;;;0.03;0.03;;;14.90;99.90;;;;;;5013383;28;20167;-76
2023/08/30 02:14:48;;;;;;;0.00;0.00;;;14.80;99.90;;;;;;5011967;28;20480;-77
2023/08/30 02:17:15;;;;;;;0.10;0.10;;;14.80;99.90;;;;;;5011932;28;20031;-76
2023/08/30 02:19:45;;;;;;;0.00;0.00;;;14.60;99.90;;;;;;5011780;28;20034;-76
2023/08/30 02:22:11;;;;;;;0.20;0.20;;;14.60;99.90;;;;;;4995971;28;20423;-76
2023/08/30 02:24:37;;;;;;;0.00;0.00;;;14.70;99.90;;;;;;5011893;28;20034;-76
2023/08/30 02:27:04;;;;;;;0.10;0.10;;;14.60;99.90;;;;;;5012113;28;20022;-76
2023/08/30 02:29:30;;;;;;;0.00;0.00;;;14.60;99.90;;;;;;5012795;28;20041;-77
2023/08/30 02:31:55;;;;;;;1.08;0.52;;;14.60;99.90;;;;;;5011787;28;20037;-76
2023/08/30 02:34:21;;;;;;;0.45;0.45;;;14.80;99.90;;;;;;4995442;28;20036;-76
2023/08/30 02:36:47;;;;;;;0.10;0.10;;;14.60;99.90;;;;;;5012992;28;20484;-76
2023/08/30 02:39:16;;;;;;;0.20;0.20;;;14.60;99.90;;;;;;5011728;28;20022;-76
2023/08/30 02:41:42;;;;;;;3.83;2.00;;;14.60;99.90;;;;;;5013034;28;20061;-76
2023/08/30 02:44:14;;;;;;;0.20;0.20;;;14.60;99.90;;;;;;5012474;28;20516;-76
2023/08/30 02:46:41;;;;;;;0.55;0.55;;;14.60;99.90;;;;;;5011462;28;20034;-76
2023/08/30 02:49:09;;;;;;;0.17;0.17;;;14.40;99.90;;;;;;5011631;28;20022;-76
2023/08/30 02:51:35;;;;;;;0.32;0.32;;;14.40;99.90;;;;;;5011404;28;20481;-77
2023/08/30 02:54:01;;;;;;;0.80;0.80;;;14.50;99.90;;;;;;5011765;28;20052;-76
2023/08/30 02:56:26;;;;;;;4.47;0.77;;;14.40;99.90;;;;;;5012762;28;20034;-77
2023/08/30 02:58:52;;;;;;;0.10;0.10;;;14.40;99.90;;;;;;4994747;28;20029;-76
2023/08/30 03:01:18;;;;;;;2.60;1.10;;;14.50;99.90;;;;;;5011146;28;20037;-77
2023/08/30 03:03:47;;;;;;;1.02;0.70;;;14.60;99.90;;;;;;4995554;28;20541;-76
2023/08/30 03:06:16;;;;;;;0.00;0.00;;;14.40;99.90;;;;;;5011250;28;20022;-76
2023/08/30 03:08:42;;;;;;;0.00;0.00;;;14.40;99.90;;;;;;5011243;28;20489;-76
2023/08/30 03:11:11;;;;;;;0.70;0.70;;;14.40;99.90;;;;;;5011106;28;20026;-76
2023/08/30 03:13:41;;;;;;;0.45;0.35;;;14.40;99.90;;;;;;4995115;28;20025;-76
2023/08/30 03:16:11;;;;;;;0.20;0.20;;;14.40;99.90;;;;;;5012244;28;20390;-76
2023/08/30 03:18:37;;;;;;;1.85;0.85;;;14.40;99.90;;;;;;5010414;28;20022;-76
2023/08/30 03:21:03;;;;;;;0.20;0.20;;;14.40;99.90;;;;;;5011062;28;20044;-76
2023/08/30 03:23:31;;;;;;;0.40;0.40;;;14.40;99.90;;;;;;5011009;28;20519;-76
2023/08/30 03:25:57;;;;;;;0.80;0.80;;;14.50;99.90;;;;;;5012070;28;20022;-76
2023/08/30 03:28:23;;;;;;;1.77;1.55;;;14.50;99.90;;;;;;5011741;28;20030;-76
2023/08/30 03:30:49;;;;;;;0.22;0.22;;;14.60;99.90;;;;;;5010861;28;20034;-76
2023/08/30 03:33:15;;;;;;;0.20;0.20;;;14.50;99.90;;;;;;5010897;28;20113;-76
2023/08/30 03:35:42;;;;;;;1.45;0.75;;;14.70;99.90;;;;;;5010683;28;20079;-76
2023/08/30 03:38:08;;;;;;;0.10;0.10;;;14.60;99.90;;;;;;4994220;28;20022;-75
2023/08/30 03:40:34;;;;;;;0.98;0.38;;;14.60;99.90;;;;;;5010838;28;20079;-76
2023/08/30 03:43:00;;;;;;;2.53;1.33;;;14.50;99.90;;;;;;5010491;28;20034;-76
2023/08/30 03:45:26;;;;;;;0.10;0.10;;;14.40;99.90;;;;;;5010548;28;20026;-76
2023/08/30 03:47:52;;;;;;;1.15;1.10;;;14.40;99.90;;;;;;5010653;28;20029;-76
2023/08/30 03:50:18;;;;;;;3.10;1.25;;;14.40;99.90;;;;;;4994054;28;20030;-76
2023/08/30 03:52:44;;;;;;;2.38;1.23;;;14.40;99.90;;;;;;5005908;28;20022;-76
2023/08/30 03:55:09;;;;;;;2.33;1.10;;;14.40;99.90;;;;;;5000066;28;20071;-76
2023/08/30 03:57:35;;;;;;;0.13;0.13;;;14.40;99.90;;;;;;5004057;28;20478;-76
2023/08/30 04:00:03;;;;;;;1.13;1.00;;;14.50;99.90;;;;;;4995803;28;20069;-76
2023/08/30 04:02:39;;;;;;;0.20;0.20;;;14.70;99.90;;;;;;4995348;28;20041;-76
2023/08/30 04:05:08;;;;;;;0.08;0.08;;;14.60;99.90;;;;;;4974897;28;20019;-76
2023/08/30 04:07:36;;;;;;;0.10;0.10;;;14.70;99.90;;;;;;4995754;28;20417;-76
2023/08/30 04:10:05;;;;;;;0.10;0.10;;;14.80;99.90;;;;;;5009840;28;20028;-76
2023/08/30 04:12:31;;;;;;;1.45;0.93;;;14.70;99.90;;;;;;5000794;28;20117;-77
2023/08/30 04:14:57;;;;;;;1.45;1.35;;;14.70;99.90;;;;;;5001346;28;20125;-75
2023/08/30 04:17:23;;;;;;;0.63;0.63;;;14.70;99.90;;;;;;4996019;28;20101;-76
2023/08/30 04:19:52;;;;;;;1.38;0.63;;;14.70;99.90;;;;;;4996507;28;20022;-76
2023/08/30 04:22:19;;;;;;;0.90;0.75;;;14.60;99.90;;;;;;4992235;28;20022;-76
2023/08/30 04:24:46;;;;;;;2.47;1.08;;;14.50;99.90;;;;;;5008860;28;20026;-75
2023/08/30 04:27:12;;;;;;;2.65;1.88;;;14.40;99.90;;;;;;5005832;28;20060;-76
2023/08/30 04:29:38;;;;;;;5.43;1.23;;;14.40;99.90;;;;;;4990766;28;20061;-76
2023/08/30 04:32:05;;;;;;;0.60;0.52;;;14.40;99.90;;;;;;5009177;28;20087;-76
2023/08/30 04:34:31;;;;;;;0.85;0.73;;;14.50;99.90;;;;;;5008344;28;20032;-75
2023/08/30 04:36:57;;;;;;;2.85;1.05;;;14.40;99.90;;;;;;5000879;28;20047;-75
2023/08/30 04:39:23;;;;;;;1.60;1.45;;;14.50;99.90;;;;;;4991058;28;20478;-76
2023/08/30 04:41:51;;;;;;;4.40;1.20;;;14.50;99.90;;;;;;5008300;28;20049;-76
2023/08/30 04:44:19;;;;;;;2.40;1.25;;;14.60;99.90;;;;;;5009517;28;20022;-75
2023/08/30 04:46:45;;;;;;;0.10;0.10;;;14.70;99.90;;;;;;5007060;28;20029;-76
2023/08/30 04:49:11;;;;;;;0.95;0.95;;;14.60;99.90;;;;;;4990176;28;20034;-76
2023/08/30 04:51:37;;;;;;;1.98;1.25;;;14.50;99.90;;;;;;4984827;28;20402;-76
2023/08/30 04:54:03;;;;;;;1.20;1.10;;;14.50;99.90;;;;;;5008728;28;20033;-76
2023/08/30 04:56:29;;;;;;;1.95;1.13;;;14.40;99.90;;;;;;5005935;28;20408;-76
2023/08/30 04:58:57;;;;;;;0.88;0.73;;;14.40;99.90;;;;;;5000443;28;20029;-76
2023/08/30 05:01:23;;;;;;;0.70;0.70;;;14.50;99.90;;;;;;5005982;28;20480;-76
2023/08/30 05:03:52;;;;;;;1.73;1.05;;;14.60;99.90;;;;;;5004427;28;20466;-76
2023/08/30 05:06:18;;;;;;;2.50;1.27;;;14.60;99.90;;;;;;5009484;28;20022;-76
2023/08/30 05:08:44;;;;;;;2.95;0.75;;;14.50;99.90;;;;;;5005863;28;20097;-75
2023/08/30 05:11:10;;;;;;;4.95;3.35;;;14.60;99.90;;;;;;5008952;28;20038;-75
2023/08/30 05:13:37;;;;;;;3.60;1.85;;;14.50;99.90;;;;;;4992978;28;20033;-75
2023/08/30 05:16:03;;;;;;;3.40;1.02;;;14.40;99.90;;;;;;5004272;28;20125;-75
2023/08/30 05:18:29;;;;;;;1.23;1.05;;;14.50;99.90;;;;;;5005033;28;20036;-76
2023/08/30 05:20:55;;;;;;;6.25;2.35;;;14.60;99.90;;;;;;4993445;28;20022;-75
2023/08/30 05:23:21;;;;;;;1.13;1.05;;;14.70;99.90;;;;;;5003527;28;20390;-76
2023/08/30 05:25:47;;;;;;;3.15;2.28;;;14.60;99.90;;;;;;4991857;28;20121;-75
2023/08/30 05:28:14;;;;;;;9.20;1.88;;;14.60;99.90;;;;;;5006297;28;20023;-75
2023/08/30 05:30:42;;;;;;;3.88;2.00;;;14.60;99.90;;;;;;5008276;28;20048;-75
2023/08/30 05:33:14;;;;;;;2.38;1.40;;;14.60;99.90;;;;;;5003024;28;20046;-75
2023/08/30 05:35:45;;;;;;;0.77;0.77;;;14.70;99.90;;;;;;5007046;28;20112;-75
2023/08/30 05:38:41;;;;;;;5.20;2.45;;;14.80;99.90;;;;;;5016017;28;20026;-75
2023/08/30 05:41:20;;;;;;;6.75;1.50;;;14.90;99.90;;;;;;4997374;28;20119;-76
2023/08/30 05:43:47;;;;;;;1.95;1.33;;;14.80;99.90;;;;;;4996908;28;20025;-75
2023/08/30 05:46:15;;;;;;;7.07;2.63;;;14.90;99.90;;;;;;4991268;28;20191;-75
2023/08/30 05:48:41;;;;;;;2.80;2.38;;;14.90;99.90;;;;;;4995207;28;20021;-75
2023/08/30 05:51:07;;;;;;;2.05;1.63;;;15.00;99.90;;;;;;5018707;28;20513;-75
2023/08/30 05:53:33;;;;;;;3.30;2.08;;;14.90;99.90;;;;;;5007304;28;20166;-75
2023/08/30 05:55:59;;;;;;;1.42;0.98;;;14.90;99.90;;;;;;5032290;28;20144;-75
2023/08/30 05:58:25;;;;;;;0.98;0.88;;;15.00;99.90;;;;;;5051733;28;20024;-75
2023/08/30 06:00:50;;;;;;;3.17;1.85;;;15.00;99.90;;;;;;5040026;28;20026;-75
2023/08/30 06:03:17;;;;;;;1.95;1.77;;;15.00;99.90;;;;;;5015757;28;20460;-75
2023/08/30 06:05:43;;;;;;;3.38;1.88;;;15.10;99.90;;;;;;5015273;28;20026;-75
2023/08/30 06:08:09;;;;;;;3.72;1.98;;;15.10;99.90;;;;;;5019144;28;20026;-75
2023/08/30 06:10:36;;;;;;;3.85;2.03;;;15.20;99.90;;;;;;5042024;28;20037;-75
2023/08/30 06:13:02;;;;;;;3.58;1.88;;;15.20;99.90;;;;;;5044474;28;20109;-76
2023/08/30 06:15:28;;;;;;;7.25;3.83;;;15.30;99.90;;;;;;5021129;28;20026;-76
2023/08/30 06:17:54;;;;;;;1.20;0.68;;;15.30;99.90;;;;;;5010582;28;20398;-75
2023/08/30 06:20:20;;;;;;;1.70;1.33;;;15.40;99.90;;;;;;5030252;28;20027;-75
2023/08/30 06:22:46;;;;;;;2.72;1.95;;;15.40;99.90;;;;;;5049969;28;20512;-76
2023/08/30 06:25:12;;;;;;;3.17;0.73;;;15.40;99.90;;;;;;5039464;28;20121;-75
2023/08/30 06:27:57;;;;;;;0.55;0.55;;;15.50;99.90;;;;;;5031644;28;20061;-75
2023/08/30 06:30:23;;;;;;;4.47;3.42;;;15.60;99.90;;;;;;5029847;28;20045;-76
2023/08/30 06:32:49;;;;;;;1.83;1.63;;;15.60;99.90;;;;;;4987433;28;20030;-76
2023/08/30 06:35:15;;;;;;;2.08;0.73;;;15.70;99.90;;;;;;5005278;28;20053;-76
2023/08/30 06:37:41;;;;;;;2.10;1.30;;;15.80;99.90;;;;;;5046004;28;20422;-75
2023/08/30 06:40:07;;;;;;;1.85;1.67;;;15.80;99.90;;;;;;5036350;28;20024;-75
2023/08/30 06:42:33;;;;;;;4.88;2.95;;;15.80;99.90;;;;;;5030588;28;20027;-75
2023/08/30 06:44:59;;;;;;;6.15;3.83;;;15.80;99.90;;;;;;5014326;28;20038;-76
2023/08/30 06:47:25;;;;;;;6.07;3.75;;;15.80;99.90;;;;;;5007166;28;20096;-75
2023/08/30 06:49:50;;;;;;;2.30;1.45;;;15.70;99.90;;;;;;5032860;28;20022;-75
2023/08/30 06:52:16;;;;;;;3.92;3.25;;;15.90;99.90;;;;;;5016180;28;20386;-75
2023/08/30 06:54:42;;;;;;;2.92;1.75;;;15.80;99.90;;;;;;5046677;28;20032;-75
2023/08/30 06:57:08;;;;;;;5.70;2.08;;;16.00;99.90;;;;;;5079937;28;20034;-76
2023/08/30 06:59:34;;;;;;;5.72;2.65;;;16.00;99.90;;;;;;5027602;27;20099;-76
2023/08/30 07:02:00;;;;;;;2.08;1.88;;;16.00;99.90;;;;;;4992125;28;20498;-80
2023/08/30 07:04:26;;;;;;;3.67;2.20;;;16.10;99.90;;;;;;4997304;28;20413;-79
2023/08/30 07:06:52;;;;;;;1.65;0.90;;;16.10;99.90;;;;;;5009652;28;20113;-79
2023/08/30 07:09:18;;;;;;;3.58;2.13;;;16.10;99.90;;;;;;5007502;28;20041;-80
2023/08/30 07:11:44;;;;;;;3.17;2.47;;;16.20;99.90;;;;;;5006670;28;20045;-78
2023/08/30 07:14:11;;;;;;;2.45;1.80;;;16.00;99.90;;;;;;4997171;28;20073;-79
2023/08/30 07:16:37;;;;;;;1.38;1.15;;;16.10;99.90;;;;;;5000827;28;20069;-79
2023/08/30 07:19:02;;;;;;;3.65;2.13;;;16.10;99.90;;;;;;5006147;28;20042;-79
2023/08/30 07:21:28;;;;;;;2.67;2.20;;;16.10;99.90;;;;;;5013907;28;20033;-78
2023/08/30 07:23:54;;;;;;;5.30;1.77;;;16.10;99.90;;;;;;4994770;28;20073;-78
2023/08/30 07:26:20;;;;;;;6.35;3.30;;;16.20;99.90;;;;;;4994153;28;20030;-78
2023/08/30 07:28:46;;;;;;;2.05;1.23;;;16.20;99.90;;;;;;4999415;28;20033;-79
2023/08/30 07:31:15;;;;;;;4.63;3.05;;;16.20;99.90;;;;;;5005833;28;20122;-80
2023/08/30 07:33:41;;;;;;;6.82;5.15;;;16.20;99.90;;;;;;5023693;28;20038;-79
2023/08/30 07:36:08;;;;;;;2.75;2.38;;;16.10;99.90;;;;;;5005926;28;20030;-80
2023/08/30 07:38:34;;;;;;;2.75;1.58;;;16.10;99.90;;;;;;5004682;28;20100;-79
2023/08/30 07:41:01;;;;;;;2.83;1.77;;;16.10;99.90;;;;;;5004183;28;20033;-77
2023/08/30 07:43:27;;;;;;;3.60;3.08;;;16.10;99.90;;;;;;5009422;28;20034;-81
2023/08/30 07:45:53;;;;;;;6.30;2.58;;;16.10;99.90;;;;;;5003301;28;20075;-80
2023/08/30 07:48:18;;;;;;;1.05;1.02;;;16.20;99.90;;;;;;5000118;28;20018;-80
2023/08/30 07:50:44;;;;;;;2.70;2.13;;;16.30;99.90;;;;;;5004747;28;20068;-80
2023/08/30 07:53:10;;;;;;;1.92;1.35;;;16.40;99.90;;;;;;4997516;28;20041;-79
2023/08/30 07:55:36;;;;;;;7.45;2.70;;;16.60;99.90;;;;;;5000115;28;20045;-80
2023/08/30 07:58:05;;;;;;;5.82;2.83;;;16.60;99.90;;;;;;4995194;28;20103;-80
2023/08/30 08:00:31;;;;;;;0.40;0.40;;;16.70;99.90;;;;;;4994781;28;20037;-81
2023/08/30 08:02:57;;;;;;;2.10;1.55;;;16.90;99.90;;;;;;5000224;28;20030;-77
2023/08/30 08:05:22;;;;;;;5.22;1.40;;;16.90;99.90;;;;;;4997202;28;20042;-78
2023/08/30 08:07:53;;;;;;;1.98;1.55;;;17.00;99.90;;;;;;5011729;28;20105;-79
2023/08/30 08:10:19;;;;;;;1.70;1.50;;;17.10;99.90;;;;;;5004933;28;20038;-78
2023/08/30 08:12:45;;;;;;;0.10;0.10;;;17.10;99.90;;;;;;5010319;28;20034;-77
2023/08/30 08:15:11;;;;;;;0.57;0.50;;;17.20;99.90;;;;;;5011618;28;20021;-78
2023/08/30 08:17:37;;;;;;;2.42;1.98;;;17.40;99.90;;;;;;5010896;28;20030;-76
2023/08/30 08:20:05;;;;;;;0.55;0.45;;;17.30;99.90;;;;;;5009222;28;20029;-78
2023/08/30 08:22:31;;;;;;;0.82;0.82;;;17.50;99.90;;;;;;5011278;28;20026;-78
2023/08/30 08:24:57;;;;;;;0.32;0.32;;;17.50;99.90;;;;;;5011296;28;20044;-79
2023/08/30 08:27:25;;;;;;;3.53;1.70;;;17.50;99.90;;;;;;5011094;28;20085;-78
2023/08/30 08:29:51;;;;;;;1.65;1.23;;;17.30;99.90;;;;;;5011116;28;20059;-77
2023/08/30 08:32:16;;;;;;;0.10;0.10;;;17.40;99.90;;;;;;5010530;28;20034;-79
2023/08/30 08:34:42;;;;;;;1.73;1.40;;;17.60;99.90;;;;;;5010775;28;20022;-78
2023/08/30 08:37:08;;;;;;;1.75;1.55;;;17.40;99.90;;;;;;5010959;28;20365;-78
2023/08/30 08:39:34;;;;;;;2.13;1.08;;;17.50;99.90;;;;;;5011226;28;20030;-78
2023/08/30 08:42:01;;;;;;;0.60;0.60;;;17.70;99.90;;;;;;5010958;28;20102;-79
2023/08/30 08:44:31;;;;;;;0.40;0.40;;;17.80;99.90;;;;;;5010973;28;20022;-79
2023/08/30 08:46:59;;;;;;;2.63;1.30;;;17.80;99.90;;;;;;5007581;28;20042;-78
2023/08/30 08:49:30;;;;;;;4.30;2.10;;;17.60;99.90;;;;;;5011084;28;20018;-77
2023/08/30 08:51:56;;;;;;;2.47;2.10;;;17.40;99.90;;;;;;5010767;28;20044;-78
2023/08/30 08:54:22;;;;;;;3.40;2.10;;;17.40;99.90;;;;;;5010858;28;20068;-78
2023/08/30 08:56:48;;;;;;;1.27;1.20;;;17.40;99.90;;;;;;5010813;28;20485;-78
2023/08/30 08:59:14;;;;;;;1.77;1.65;;;17.80;99.90;;;;;;5010683;28;20382;-78
2023/08/30 09:01:40;;;;;;;0.75;0.75;;;17.70;99.90;;;;;;5009047;28;20049;-79
2023/08/30 09:04:08;;;;;;;2.92;1.77;;;18.00;99.90;;;;;;5009270;28;20018;-79
2023/08/30 09:06:35;;;;;;;1.88;1.35;;;18.10;99.90;;;;;;5010529;28;20026;-79
2023/08/30 09:09:04;;;;;;;0.00;0.00;;;18.00;99.90;;;;;;5010453;28;20022;-79
2023/08/30 09:11:31;;;;;;;1.30;1.20;;;18.20;99.90;;;;;;5010615;28;20042;-78
2023/08/30 09:13:57;;;;;;;0.70;0.70;;;18.30;99.90;;;;;;5009567;28;20026;-78
2023/08/30 09:16:23;;;;;;;0.93;0.68;;;18.70;99.90;;;;;;5009596;28;20026;-79
2023/08/30 09:18:59;;;;;;;4.28;2.88;;;18.60;99.90;;;;;;5010696;28;20351;-78
2023/08/30 09:21:24;;;;;;;2.55;1.67;;;18.40;99.90;;;;;;5010517;28;20108;-78
2023/08/30 09:24:04;;;;;;;1.48;0.70;;;18.50;99.90;;;;;;5010613;28;20030;-78
2023/08/30 09:26:31;;;;;;;0.22;0.22;;;18.70;99.90;;;;;;5009264;28;20073;-79
2023/08/30 09:29:04;;;;;;;6.60;2.63;;;19.20;99.90;;;;;;5009279;28;20037;-78
2023/08/30 09:31:37;;;;;;;3.28;2.83;;;19.70;99.90;;;;;;5009977;28;20054;-79
2023/08/30 09:34:04;;;;;;;0.90;0.90;;;19.30;99.90;;;;;;5008600;28;20033;-78
2023/08/30 09:36:34;;;;;;;1.02;0.70;;;19.00;99.90;;;;;;5008331;28;20034;-78
2023/08/30 09:39:03;;;;;;;1.75;0.73;;;18.80;99.90;;;;;;5008562;28;20479;-79
2023/08/30 09:41:30;;;;;;;0.85;0.47;;;18.40;99.90;;;;;;5007328;28;20428;-78
2023/08/30 09:43:56;;;;;;;0.47;0.47;;;18.10;99.90;;;;;;5008334;28;20030;-78
2023/08/30 09:46:23;;;;;;;1.45;0.93;;;18.00;99.90;;;;;;5008522;28;20083;-78
2023/08/30 09:48:50;;;;;;;1.48;1.08;;;18.20;99.90;;;;;;5009386;28;20460;-78
2023/08/30 09:51:18;;;;;;;2.35;1.35;;;18.50;99.90;;;;;;5010251;28;20038;-78
2023/08/30 09:53:48;;;;;;;2.45;1.25;;;18.50;99.90;;;;;;5010035;28;20026;-78
2023/08/30 09:56:15;;;;;;;0.93;0.20;;;18.70;99.90;;;;;;5008860;28;20030;-78
2023/08/30 09:58:42;;;;;;;1.45;0.52;;;19.00;99.90;;;;;;5009992;28;20538;-77
2023/08/30 10:01:09;;;;;;;2.30;1.25;;;18.90;99.90;;;;;;5008583;28;20098;-78
2023/08/30 10:03:36;;;;;;;0.43;0.43;;;18.80;99.90;;;;;;5009816;28;20484;-78
2023/08/30 10:06:05;;;;;;;0.90;0.52;;;19.00;99.90;;;;;;5009998;28;20496;-76
2023/08/30 10:08:33;;;;;;;0.90;0.55;;;19.50;99.90;;;;;;5009250;28;20026;-77
2023/08/30 10:11:00;;;;;;;1.50;0.65;;;19.80;99.90;;;;;;5024709;28;20030;-77
2023/08/30 10:13:26;;;;;;;0.10;0.10;;;19.50;99.90;;;;;;5032102;28;20022;-77
2023/08/30 10:15:58;;;;;;;0.10;0.10;;;19.20;99.90;;;;;;5020039;28;20489;-77
2023/08/30 10:18:28;;;;;;;0.65;0.65;;;19.80;99.90;;;;;;5093373;28;20029;-77
2023/08/30 10:20:55;;;;;;;5.68;1.75;;;20.00;99.90;;;;;;5082975;28;20118;-77
2023/08/30 10:23:22;;;;;;;1.25;0.73;;;19.80;99.90;;;;;;5038058;28;20034;-77
2023/08/30 10:25:52;;;;;;;14.07;1.48;;;19.20;99.90;;;;;;5023658;28;20033;-77
2023/08/30 10:28:21;;;;;;;1.75;0.75;;;18.50;99.90;;;;;;5021749;28;20458;-76
2023/08/30 10:30:47;;;;;;;14.18;1.13;;;18.40;99.90;;;;;;5091351;28;20031;-76
2023/08/30 10:33:14;;;;;;;3.92;0.52;;;19.10;99.90;;;;;;5058496;28;20505;-77
2023/08/30 10:35:51;;;;;;;0.52;0.45;;;19.60;99.90;;;;;;5032242;28;20030;-77
2023/08/30 10:38:28;;;;;;;0.08;0.08;;;19.70;99.90;;;;;;5021768;28;20355;-77
2023/08/30 10:40:55;;;;;;;0.52;0.50;;;20.00;99.90;;;;;;5047894;28;20024;-78
2023/08/30 10:43:33;;;;;;;0.15;0.10;;;19.60;99.90;;;;;;5069384;28;20379;-79
2023/08/30 10:46:11;;;;;;;0.00;0.00;;;19.10;99.90;;;;;;5040877;28;20026;-79
2023/08/30 10:48:38;;;;;;;0.28;0.25;;;19.30;99.90;;;;;;5013232;28;20406;-80
2023/08/30 10:51:07;;;;;;;0.65;0.52;;;20.00;99.90;;;;;;5055084;28;20479;-80
2023/08/30 10:53:33;;;;;;;1.27;0.52;;;20.80;99.90;;;;;;5079609;28;20039;-79
2023/08/30 10:56:11;;;;;;;2.28;0.63;;;20.60;99.90;;;;;;5048498;28;20420;-79
2023/08/30 10:58:43;;;;;;;0.10;0.10;;;20.10;99.90;;;;;;5019825;28;20471;-79
2023/08/30 11:01:12;;;;;;;0.00;0.00;;;19.70;99.90;;;;;;5018376;28;20037;-80
2023/08/30 11:03:40;;;;;;;0.10;0.10;;;19.50;99.90;;;;;;5070736;28;20035;-78
2023/08/30 11:06:06;;;;;;;3.53;0.70;;;20.30;99.90;;;;;;5059477;28;20381;-79
2023/08/30 11:08:32;;;;;;;1.48;0.95;;;20.90;99.90;;;;;;5063226;28;20027;-79
2023/08/30 11:11:05;;;;;;;3.92;1.20;;;21.30;99.90;;;;;;5018698;28;20030;-80
2023/08/30 11:13:31;;;;;;;0.00;0.00;;;21.00;99.90;;;;;;5038139;28;20033;-84
2023/08/30 11:16:03;;;;;;;0.88;0.55;;;20.40;99.90;;;;;;5025081;28;20034;-77
2023/08/30 11:18:30;;;;;;;1.17;0.93;;;19.80;99.90;;;;;;5023845;28;20055;-77
2023/08/30 11:21:02;;;;;;;0.00;0.00;;;19.60;99.90;;;;;;5011494;28;20062;-77
2023/08/30 11:23:29;;;;;;;0.00;0.00;;;19.70;99.90;;;;;;5059243;27;20037;-77
2023/08/30 11:25:55;;;;;;;0.40;0.30;;;20.60;99.90;;;;;;5030596;28;20022;-77
2023/08/30 11:28:24;;;;;;;0.03;0.00;;;20.90;99.60;;;;;;5030270;28;20038;-77
2023/08/30 11:30:54;;;;;;;3.47;0.50;;;21.00;99.40;;;;;;5029801;28;20401;-77
2023/08/30 11:33:21;;;;;;;2.72;0.38;;;20.70;99.50;;;;;;5052426;28;20229;-77
2023/08/30 11:35:49;;;;;;;1.40;0.88;;;21.20;99.90;;;;;;5039812;28;20026;-77
2023/08/30 11:38:15;;;;;;;5.35;1.20;;;21.90;99.10;;;;;;5029716;28;20359;-77
2023/08/30 11:40:41;;;;;;;0.20;0.20;;;21.50;97.40;;;;;;5029459;28;20468;-77
2023/08/30 11:43:08;;;;;;;2.75;0.25;;;21.20;98.20;;;;;;5016269;28;20029;-77
2023/08/30 11:45:34;;;;;;;0.28;0.28;;;21.00;99.60;;;;;;5048345;28;20040;-76
2023/08/30 11:48:00;;;;;;;0.10;0.10;;;20.00;99.90;;;;;;5035450;28;20105;-77
2023/08/30 11:50:27;;;;;;;3.58;0.77;;;19.70;99.90;;;;;;5038349;28;20364;-85
2023/08/30 11:52:53;;;;;;;3.03;0.40;;;20.70;99.90;;;;;;5055988;28;20028;-76
2023/08/30 11:55:21;;;;;;;0.30;0.30;;;21.50;99.90;;;;;;5032028;28;20037;-77
2023/08/30 11:57:51;;;;;;;0.47;0.47;;;21.80;99.90;;;;;;5043891;28;20029;-79
2023/08/30 12:00:19;;;;;;;2.28;0.77;;;22.10;99.90;;;;;;5038033;28;20026;-79
2023/08/30 12:02:46;;;;;;;4.03;0.88;;;22.40;99.20;;;;;;5038532;28;20045;-78
2023/08/30 12:05:15;;;;;;;2.17;0.95;;;22.30;99.90;;;;;;5025367;28;20097;-78
2023/08/30 12:07:42;;;;;;;6.70;0.47;;;21.20;99.20;;;;;;5012508;28;20037;-77
2023/08/30 12:10:09;;;;;;;4.63;0.95;;;20.30;99.90;;;;;;5036570;28;20021;-77
2023/08/30 12:12:39;;;;;;;0.35;0.35;;;20.20;99.90;;;;;;5044801;28;20032;-77
2023/08/30 12:15:09;;;;;;;0.32;0.20;;;21.10;99.90;;;;;;5010492;28;20091;-78
2023/08/30 12:17:35;;;;;;;5.20;0.80;;;21.60;99.90;;;;;;5075609;28;20484;-78
2023/08/30 12:20:03;;;;;;;0.00;0.00;;;20.80;99.90;;;;;;5074102;28;20089;-77
2023/08/30 12:22:39;;;;;;;11.27;0.45;;;21.00;99.90;;;;;;5019891;28;20054;-78
2023/08/30 12:25:26;;;;;;;2.67;0.50;;;21.50;99.90;;;;;;5036785;28;20067;-77
2023/08/30 12:27:53;;;;;;;0.43;0.38;;;21.70;99.90;;;;;;5017468;28;20030;-79
2023/08/30 12:30:19;;;;;;;0.00;0.00;;;21.60;99.90;;;;;;5087786;28;20014;-78
2023/08/30 12:32:46;;;;;;;1.17;0.52;;;22.20;99.90;;;;;;5082369;28;20035;-78
2023/08/30 12:35:12;;;;;;;0.10;0.10;;;22.40;99.90;;;;;;5049342;28;20037;-78
2023/08/30 12:37:38;;;;;;;0.35;0.30;;;22.70;99.60;;;;;;5026408;28;20030;-79
2023/08/30 12:40:04;;;;;;;0.70;0.20;;;22.80;99.60;;;;;;5013293;28;20045;-80
2023/08/30 12:42:30;;;;;;;1.40;0.90;;;22.20;99.90;;;;;;5017442;28;20031;-78
2023/08/30 12:44:56;;;;;;;4.82;1.05;;;21.10;99.90;;;;;;5078123;28;20023;-76
2023/08/30 12:47:22;;;;;;;0.00;0.00;;;20.20;99.90;;;;;;5034638;28;20056;-78
2023/08/30 12:49:48;;;;;;;3.55;0.85;;;20.10;99.90;;;;;;5022167;28;20038;-78